sensor_id;sensor_type;location;lat;lon;timestamp;P1;durP1;ratioP1;P2;durP2;ratioP2
9294;SDS011;4686;44.496;11.324;2023-06-10T00:01:33;12.23;;;10.70;;
9294;SDS011;4686;44.496;11.324;2023-06-10T00:04:01;12.53;;;11.27;;
9294;SDS011;4686;44.496;11.324;2023-06-10T00:06:29;12.13;;;10.77;;
9294;SDS011;4686;44.496;11.324;2023-06-10T00:09:01;13.07;;;11.73;;
9294;SDS011;4686;44.496;11.324;2023-06-10T00:11:30;14.43;;;11.63;;
9294;SDS011;4686;44.496;11.324;2023-06-10T00:13:57;13.40;;;12.00;;
9294;SDS011;4686;44.496;11.324;2023-06-10T00:16:25;14.40;;;12.90;;
9294;SDS011;4686;44.496;11.324;2023-06-10T00:18:54;14.20;;;12.70;;
9294;SDS011;4686;44.496;11.324;2023-06-10T00:21:26;15.10;;;13.60;;
9294;SDS011;4686;44.496;11.324;2023-06-10T00:23:53;16.00;;;14.40;;
9294;SDS011;4686;44.496;11.324;2023-06-10T00:26:21;15.43;;;13.93;;
9294;SDS011;4686;44.496;11.324;2023-06-10T00:28:48;16.10;;;14.40;;
9294;SDS011;4686;44.496;11.324;2023-06-10T00:31:15;13.10;;;11.80;;
9294;SDS011;4686;44.496;11.324;2023-06-10T00:33:43;20.00;;;14.50;;
9294;SDS011;4686;44.496;11.324;2023-06-10T00:36:12;15.17;;;13.77;;
9294;SDS011;4686;44.496;11.324;2023-06-10T00:38:39;16.10;;;14.50;;
9294;SDS011;4686;44.496;11.324;2023-06-10T00:41:06;17.47;;;14.53;;
9294;SDS011;4686;44.496;11.324;2023-06-10T00:43:33;21.80;;;19.03;;
9294;SDS011;4686;44.496;11.324;2023-06-10T00:46:01;23.70;;;21.13;;
9294;SDS011;4686;44.496;11.324;2023-06-10T00:48:29;28.10;;;21.67;;
9294;SDS011;4686;44.496;11.324;2023-06-10T00:50:56;22.43;;;20.00;;
9294;SDS011;4686;44.496;11.324;2023-06-10T00:53:26;26.80;;;23.27;;
9294;SDS011;4686;44.496;11.324;2023-06-10T00:55:53;27.10;;;23.83;;
9294;SDS011;4686;44.496;11.324;2023-06-10T00:58:21;27.67;;;23.70;;
9294;SDS011;4686;44.496;11.324;2023-06-10T01:00:48;28.23;;;23.77;;
9294;SDS011;4686;44.496;11.324;2023-06-10T01:03:16;27.87;;;24.80;;
9294;SDS011;4686;44.496;11.324;2023-06-10T01:05:43;28.67;;;25.67;;
9294;SDS011;4686;44.496;11.324;2023-06-10T01:08:15;34.53;;;27.30;;
9294;SDS011;4686;44.496;11.324;2023-06-10T01:10:49;28.93;;;25.93;;
9294;SDS011;4686;44.496;11.324;2023-06-10T01:13:17;31.20;;;26.50;;
9294;SDS011;4686;44.496;11.324;2023-06-10T01:15:50;31.53;;;28.13;;
9294;SDS011;4686;44.496;11.324;2023-06-10T01:18:20;37.73;;;29.33;;
9294;SDS011;4686;44.496;11.324;2023-06-10T01:20:49;34.90;;;29.00;;
9294;SDS011;4686;44.496;11.324;2023-06-10T01:23:18;36.03;;;30.00;;
9294;SDS011;4686;44.496;11.324;2023-06-10T01:25:47;32.17;;;26.17;;
9294;SDS011;4686;44.496;11.324;2023-06-10T01:28:17;25.10;;;22.40;;
9294;SDS011;4686;44.496;11.324;2023-06-10T01:30:48;26.73;;;22.40;;
9294;SDS011;4686;44.496;11.324;2023-06-10T01:33:17;23.53;;;21.10;;
9294;SDS011;4686;44.496;11.324;2023-06-10T01:35:46;14.90;;;13.37;;
9294;SDS011;4686;44.496;11.324;2023-06-10T01:38:14;13.80;;;12.60;;
9294;SDS011;4686;44.496;11.324;2023-06-10T01:40:44;11.00;;;9.90;;
9294;SDS011;4686;44.496;11.324;2023-06-10T01:43:13;10.13;;;9.20;;
9294;SDS011;4686;44.496;11.324;2023-06-10T01:45:40;12.27;;;9.20;;
9294;SDS011;4686;44.496;11.324;2023-06-10T01:48:08;9.70;;;8.80;;
9294;SDS011;4686;44.496;11.324;2023-06-10T01:50:36;9.80;;;8.90;;
9294;SDS011;4686;44.496;11.324;2023-06-10T01:53:04;12.00;;;9.63;;
9294;SDS011;4686;44.496;11.324;2023-06-10T01:55:33;10.60;;;9.60;;
9294;SDS011;4686;44.496;11.324;2023-06-10T01:58:02;11.07;;;10.07;;
9294;SDS011;4686;44.496;11.324;2023-06-10T02:00:30;11.60;;;10.50;;
9294;SDS011;4686;44.496;11.324;2023-06-10T02:02:57;11.50;;;10.40;;
9294;SDS011;4686;44.496;11.324;2023-06-10T02:05:27;12.50;;;11.30;;
9294;SDS011;4686;44.496;11.324;2023-06-10T02:07:54;11.63;;;10.57;;
9294;SDS011;4686;44.496;11.324;2023-06-10T02:10:22;11.90;;;10.63;;
9294;SDS011;4686;44.496;11.324;2023-06-10T02:12:49;11.43;;;10.30;;
9294;SDS011;4686;44.496;11.324;2023-06-10T02:15:31;10.90;;;9.80;;
9294;SDS011;4686;44.496;11.324;2023-06-10T02:18:00;12.10;;;10.90;;
9294;SDS011;4686;44.496;11.324;2023-06-10T02:20:27;13.70;;;12.33;;
9294;SDS011;4686;44.496;11.324;2023-06-10T02:22:56;20.00;;;17.63;;
9294;SDS011;4686;44.496;11.324;2023-06-10T02:25:25;18.73;;;16.83;;
9294;SDS011;4686;44.496;11.324;2023-06-10T02:27:52;19.57;;;17.63;;
9294;SDS011;4686;44.496;11.324;2023-06-10T02:30:20;19.97;;;17.90;;
9294;SDS011;4686;44.496;11.324;2023-06-10T02:32:48;18.10;;;16.23;;
9294;SDS011;4686;44.496;11.324;2023-06-10T02:35:17;18.97;;;17.07;;
9294;SDS011;4686;44.496;11.324;2023-06-10T02:37:45;17.40;;;15.57;;
9294;SDS011;4686;44.496;11.324;2023-06-10T02:40:12;16.77;;;14.80;;
9294;SDS011;4686;44.496;11.324;2023-06-10T02:42:39;19.27;;;17.37;;
9294;SDS011;4686;44.496;11.324;2023-06-10T02:45:07;18.00;;;16.30;;
9294;SDS011;4686;44.496;11.324;2023-06-10T02:47:37;19.00;;;17.10;;
9294;SDS011;4686;44.496;11.324;2023-06-10T02:50:06;17.93;;;16.20;;
9294;SDS011;4686;44.496;11.324;2023-06-10T02:52:33;19.20;;;16.50;;
9294;SDS011;4686;44.496;11.324;2023-06-10T02:55:01;17.47;;;15.67;;
9294;SDS011;4686;44.496;11.324;2023-06-10T02:57:28;18.50;;;16.37;;
9294;SDS011;4686;44.496;11.324;2023-06-10T02:59:56;17.90;;;15.80;;
9294;SDS011;4686;44.496;11.324;2023-06-10T03:02:23;18.93;;;17.13;;
9294;SDS011;4686;44.496;11.324;2023-06-10T03:04:53;20.80;;;18.37;;
9294;SDS011;4686;44.496;11.324;2023-06-10T03:07:26;19.47;;;17.47;;
9294;SDS011;4686;44.496;11.324;2023-06-10T03:09:54;20.30;;;18.17;;
9294;SDS011;4686;44.496;11.324;2023-06-10T03:12:21;22.03;;;18.53;;
9294;SDS011;4686;44.496;11.324;2023-06-10T03:14:48;19.57;;;17.40;;
9294;SDS011;4686;44.496;11.324;2023-06-10T03:17:17;19.43;;;17.53;;
9294;SDS011;4686;44.496;11.324;2023-06-10T03:19:45;19.60;;;17.40;;
9294;SDS011;4686;44.496;11.324;2023-06-10T03:22:12;21.50;;;18.53;;
9294;SDS011;4686;44.496;11.324;2023-06-10T03:24:42;19.80;;;17.77;;
9294;SDS011;4686;44.496;11.324;2023-06-10T03:27:11;19.27;;;17.27;;
9294;SDS011;4686;44.496;11.324;2023-06-10T03:29:40;19.23;;;17.33;;
9294;SDS011;4686;44.496;11.324;2023-06-10T03:32:07;19.77;;;17.67;;
9294;SDS011;4686;44.496;11.324;2023-06-10T03:34:34;20.00;;;18.00;;
9294;SDS011;4686;44.496;11.324;2023-06-10T03:37:02;21.70;;;18.53;;
9294;SDS011;4686;44.496;11.324;2023-06-10T03:39:29;21.50;;;19.30;;
9294;SDS011;4686;44.496;11.324;2023-06-10T03:41:59;20.67;;;18.53;;
9294;SDS011;4686;44.496;11.324;2023-06-10T03:44:28;21.50;;;18.60;;
9294;SDS011;4686;44.496;11.324;2023-06-10T03:46:55;19.53;;;17.60;;
9294;SDS011;4686;44.496;11.324;2023-06-10T03:49:25;20.97;;;18.80;;
9294;SDS011;4686;44.496;11.324;2023-06-10T03:52:01;23.97;;;19.80;;
9294;SDS011;4686;44.496;11.324;2023-06-10T03:54:28;24.73;;;20.00;;
9294;SDS011;4686;44.496;11.324;2023-06-10T03:56:57;23.70;;;21.20;;
9294;SDS011;4686;44.496;11.324;2023-06-10T03:59:25;26.80;;;20.20;;
9294;SDS011;4686;44.496;11.324;2023-06-10T04:01:53;24.73;;;21.77;;
9294;SDS011;4686;44.496;11.324;2023-06-10T04:04:21;24.77;;;21.97;;
9294;SDS011;4686;44.496;11.324;2023-06-10T04:06:48;28.13;;;23.17;;
9294;SDS011;4686;44.496;11.324;2023-06-10T04:09:17;25.50;;;22.90;;
9294;SDS011;4686;44.496;11.324;2023-06-10T04:11:44;19.50;;;17.57;;
9294;SDS011;4686;44.496;11.324;2023-06-10T04:14:13;25.57;;;22.87;;
9294;SDS011;4686;44.496;11.324;2023-06-10T04:16:42;16.27;;;14.57;;
9294;SDS011;4686;44.496;11.324;2023-06-10T04:19:09;23.07;;;20.77;;
9294;SDS011;4686;44.496;11.324;2023-06-10T04:21:37;20.70;;;18.60;;
9294;SDS011;4686;44.496;11.324;2023-06-10T04:24:04;21.20;;;19.03;;
9294;SDS011;4686;44.496;11.324;2023-06-10T04:26:32;19.07;;;17.10;;
9294;SDS011;4686;44.496;11.324;2023-06-10T04:28:59;26.67;;;23.33;;
9294;SDS011;4686;44.496;11.324;2023-06-10T04:31:27;25.67;;;22.80;;
9294;SDS011;4686;44.496;11.324;2023-06-10T04:33:55;21.90;;;19.70;;
9294;SDS011;4686;44.496;11.324;2023-06-10T04:36:22;27.23;;;24.40;;
9294;SDS011;4686;44.496;11.324;2023-06-10T04:38:50;28.20;;;24.83;;
9294;SDS011;4686;44.496;11.324;2023-06-10T04:41:18;22.30;;;19.87;;
9294;SDS011;4686;44.496;11.324;2023-06-10T04:43:45;22.30;;;20.10;;
9294;SDS011;4686;44.496;11.324;2023-06-10T04:46:13;19.67;;;17.60;;
9294;SDS011;4686;44.496;11.324;2023-06-10T04:48:40;23.90;;;19.70;;
9294;SDS011;4686;44.496;11.324;2023-06-10T04:51:09;28.17;;;24.47;;
9294;SDS011;4686;44.496;11.324;2023-06-10T04:53:37;23.63;;;20.93;;
9294;SDS011;4686;44.496;11.324;2023-06-10T04:56:04;25.37;;;22.77;;
9294;SDS011;4686;44.496;11.324;2023-06-10T04:58:33;26.23;;;23.20;;
9294;SDS011;4686;44.496;11.324;2023-06-10T05:01:00;23.67;;;21.20;;
9294;SDS011;4686;44.496;11.324;2023-06-10T05:03:27;25.70;;;22.33;;
9294;SDS011;4686;44.496;11.324;2023-06-10T05:05:55;23.03;;;20.53;;
9294;SDS011;4686;44.496;11.324;2023-06-10T05:08:24;22.63;;;20.07;;
9294;SDS011;4686;44.496;11.324;2023-06-10T05:10:52;22.83;;;20.43;;
9294;SDS011;4686;44.496;11.324;2023-06-10T05:13:19;22.53;;;20.23;;
9294;SDS011;4686;44.496;11.324;2023-06-10T05:15:47;20.95;;;18.70;;
9294;SDS011;4686;44.496;11.324;2023-06-10T05:18:14;23.40;;;21.00;;
9294;SDS011;4686;44.496;11.324;2023-06-10T05:20:41;21.73;;;19.10;;
9294;SDS011;4686;44.496;11.324;2023-06-10T05:23:09;20.03;;;16.87;;
9294;SDS011;4686;44.496;11.324;2023-06-10T05:25:38;21.10;;;17.73;;
9294;SDS011;4686;44.496;11.324;2023-06-10T05:28:06;23.40;;;18.80;;
9294;SDS011;4686;44.496;11.324;2023-06-10T05:30:35;24.53;;;19.87;;
9294;SDS011;4686;44.496;11.324;2023-06-10T05:33:02;22.20;;;19.90;;
9294;SDS011;4686;44.496;11.324;2023-06-10T05:35:29;21.60;;;19.50;;
9294;SDS011;4686;44.496;11.324;2023-06-10T05:37:57;23.63;;;21.17;;
9294;SDS011;4686;44.496;11.324;2023-06-10T05:40:24;20.67;;;18.20;;
9294;SDS011;4686;44.496;11.324;2023-06-10T05:42:53;26.33;;;20.77;;
9294;SDS011;4686;44.496;11.324;2023-06-10T05:45:20;20.57;;;18.13;;
9294;SDS011;4686;44.496;11.324;2023-06-10T05:47:47;22.17;;;19.90;;
9294;SDS011;4686;44.496;11.324;2023-06-10T05:50:15;21.20;;;19.10;;
9294;SDS011;4686;44.496;11.324;2023-06-10T05:52:43;21.30;;;19.10;;
9294;SDS011;4686;44.496;11.324;2023-06-10T05:55:10;23.70;;;17.97;;
9294;SDS011;4686;44.496;11.324;2023-06-10T05:57:37;23.67;;;19.10;;
9294;SDS011;4686;44.496;11.324;2023-06-10T06:00:07;22.43;;;18.70;;
9294;SDS011;4686;44.496;11.324;2023-06-10T06:02:34;19.70;;;17.03;;
9294;SDS011;4686;44.496;11.324;2023-06-10T06:05:02;21.23;;;19.03;;
9294;SDS011;4686;44.496;11.324;2023-06-10T06:07:29;22.83;;;18.60;;
9294;SDS011;4686;44.496;11.324;2023-06-10T06:09:57;20.53;;;18.27;;
9294;SDS011;4686;44.496;11.324;2023-06-10T06:12:24;21.40;;;18.70;;
9294;SDS011;4686;44.496;11.324;2023-06-10T06:14:52;20.93;;;18.77;;
9294;SDS011;4686;44.496;11.324;2023-06-10T06:17:21;18.73;;;16.83;;
9294;SDS011;4686;44.496;11.324;2023-06-10T06:19:48;20.10;;;17.40;;
9294;SDS011;4686;44.496;11.324;2023-06-10T06:22:17;18.30;;;16.50;;
9294;SDS011;4686;44.496;11.324;2023-06-10T06:24:47;18.13;;;15.90;;
9294;SDS011;4686;44.496;11.324;2023-06-10T06:27:26;18.57;;;16.70;;
9294;SDS011;4686;44.496;11.324;2023-06-10T06:29:54;18.33;;;16.60;;
9294;SDS011;4686;44.496;11.324;2023-06-10T06:32:22;21.70;;;16.97;;
9294;SDS011;4686;44.496;11.324;2023-06-10T06:34:51;21.03;;;17.30;;
9294;SDS011;4686;44.496;11.324;2023-06-10T06:37:20;18.63;;;16.73;;
9294;SDS011;4686;44.496;11.324;2023-06-10T06:39:48;18.27;;;16.50;;
9294;SDS011;4686;44.496;11.324;2023-06-10T06:42:15;18.33;;;14.77;;
9294;SDS011;4686;44.496;11.324;2023-06-10T06:44:42;20.57;;;16.00;;
9294;SDS011;4686;44.496;11.324;2023-06-10T06:47:09;16.23;;;14.53;;
9294;SDS011;4686;44.496;11.324;2023-06-10T06:49:38;19.33;;;17.30;;
9294;SDS011;4686;44.496;11.324;2023-06-10T06:52:06;21.60;;;17.90;;
9294;SDS011;4686;44.496;11.324;2023-06-10T06:54:34;21.80;;;15.87;;
9294;SDS011;4686;44.496;11.324;2023-06-10T06:57:02;20.13;;;15.50;;
9294;SDS011;4686;44.496;11.324;2023-06-10T06:59:31;18.80;;;14.50;;
9294;SDS011;4686;44.496;11.324;2023-06-10T07:01:58;15.47;;;13.17;;
9294;SDS011;4686;44.496;11.324;2023-06-10T07:04:26;15.53;;;13.60;;
9294;SDS011;4686;44.496;11.324;2023-06-10T07:06:55;13.73;;;12.43;;
9294;SDS011;4686;44.496;11.324;2023-06-10T07:09:23;15.80;;;14.30;;
9294;SDS011;4686;44.496;11.324;2023-06-10T07:11:52;15.50;;;13.90;;
9294;SDS011;4686;44.496;11.324;2023-06-10T07:14:19;19.80;;;15.57;;
9294;SDS011;4686;44.496;11.324;2023-06-10T07:16:47;17.10;;;14.70;;
9294;SDS011;4686;44.496;11.324;2023-06-10T07:19:14;17.40;;;15.60;;
9294;SDS011;4686;44.496;11.324;2023-06-10T07:21:42;14.87;;;13.37;;
9294;SDS011;4686;44.496;11.324;2023-06-10T07:24:10;13.03;;;11.73;;
9294;SDS011;4686;44.496;11.324;2023-06-10T07:26:38;14.93;;;12.80;;
9294;SDS011;4686;44.496;11.324;2023-06-10T07:29:05;14.33;;;12.70;;
9294;SDS011;4686;44.496;11.324;2023-06-10T07:31:33;17.93;;;10.67;;
9294;SDS011;4686;44.496;11.324;2023-06-10T07:34:00;13.30;;;9.70;;
9294;SDS011;4686;44.496;11.324;2023-06-10T07:36:28;14.57;;;12.40;;
9294;SDS011;4686;44.496;11.324;2023-06-10T07:38:55;15.30;;;10.43;;
9294;SDS011;4686;44.496;11.324;2023-06-10T07:41:24;11.30;;;10.17;;
9294;SDS011;4686;44.496;11.324;2023-06-10T07:43:52;11.60;;;10.50;;
9294;SDS011;4686;44.496;11.324;2023-06-10T07:46:21;14.60;;;10.30;;
9294;SDS011;4686;44.496;11.324;2023-06-10T07:48:48;13.67;;;11.53;;
9294;SDS011;4686;44.496;11.324;2023-06-10T07:51:15;12.63;;;11.37;;
9294;SDS011;4686;44.496;11.324;2023-06-10T07:53:43;13.27;;;11.00;;
9294;SDS011;4686;44.496;11.324;2023-06-10T07:56:10;13.40;;;11.07;;
9294;SDS011;4686;44.496;11.324;2023-06-10T07:58:39;11.60;;;10.30;;
9294;SDS011;4686;44.496;11.324;2023-06-10T08:01:06;12.30;;;11.20;;
9294;SDS011;4686;44.496;11.324;2023-06-10T08:03:34;13.23;;;10.00;;
9294;SDS011;4686;44.496;11.324;2023-06-10T08:06:03;11.83;;;10.63;;
9294;SDS011;4686;44.496;11.324;2023-06-10T08:08:32;16.10;;;11.40;;
9294;SDS011;4686;44.496;11.324;2023-06-10T08:11:06;12.13;;;10.27;;
9294;SDS011;4686;44.496;11.324;2023-06-10T08:13:34;10.67;;;9.60;;
9294;SDS011;4686;44.496;11.324;2023-06-10T08:16:18;11.20;;;9.80;;
9294;SDS011;4686;44.496;11.324;2023-06-10T08:18:46;10.60;;;9.57;;
9294;SDS011;4686;44.496;11.324;2023-06-10T08:21:15;11.60;;;9.87;;
9294;SDS011;4686;44.496;11.324;2023-06-10T08:23:44;10.93;;;9.83;;
9294;SDS011;4686;44.496;11.324;2023-06-10T08:26:11;24.80;;;18.80;;
9294;SDS011;4686;44.496;11.324;2023-06-10T08:28:40;37.53;;;28.73;;
9294;SDS011;4686;44.496;11.324;2023-06-10T08:31:10;27.27;;;22.73;;
9294;SDS011;4686;44.496;11.324;2023-06-10T08:33:39;37.57;;;28.73;;
9294;SDS011;4686;44.496;11.324;2023-06-10T08:36:06;77.83;;;56.70;;
9294;SDS011;4686;44.496;11.324;2023-06-10T08:38:34;21.90;;;19.13;;
9294;SDS011;4686;44.496;11.324;2023-06-10T08:41:02;33.50;;;27.73;;
9294;SDS011;4686;44.496;11.324;2023-06-10T08:43:32;54.37;;;39.37;;
9294;SDS011;4686;44.496;11.324;2023-06-10T08:46:01;33.17;;;26.37;;
9294;SDS011;4686;44.496;11.324;2023-06-10T08:48:29;37.10;;;28.77;;
9294;SDS011;4686;44.496;11.324;2023-06-10T08:50:58;20.70;;;17.93;;
9294;SDS011;4686;44.496;11.324;2023-06-10T08:53:26;70.90;;;51.70;;
9294;SDS011;4686;44.496;11.324;2023-06-10T08:55:54;44.80;;;39.80;;
9294;SDS011;4686;44.496;11.324;2023-06-10T08:58:25;19.67;;;16.67;;
9294;SDS011;4686;44.496;11.324;2023-06-10T09:00:54;28.73;;;25.43;;
9294;SDS011;4686;44.496;11.324;2023-06-10T09:03:22;43.03;;;38.00;;
9294;SDS011;4686;44.496;11.324;2023-06-10T09:05:50;54.70;;;46.80;;
9294;SDS011;4686;44.496;11.324;2023-06-10T09:08:19;19.20;;;16.70;;
9294;SDS011;4686;44.496;11.324;2023-06-10T09:10:47;19.93;;;17.80;;
9294;SDS011;4686;44.496;11.324;2023-06-10T09:13:14;56.50;;;43.40;;
9294;SDS011;4686;44.496;11.324;2023-06-10T09:15:43;51.00;;;42.93;;
9294;SDS011;4686;44.496;11.324;2023-06-10T09:18:14;47.60;;;40.03;;
9294;SDS011;4686;44.496;11.324;2023-06-10T09:20:42;29.60;;;25.97;;
9294;SDS011;4686;44.496;11.324;2023-06-10T09:23:10;54.20;;;47.47;;
9294;SDS011;4686;44.496;11.324;2023-06-10T09:25:40;62.33;;;53.33;;
9294;SDS011;4686;44.496;11.324;2023-06-10T09:28:12;62.30;;;55.10;;
9294;SDS011;4686;44.496;11.324;2023-06-10T09:30:40;28.03;;;25.03;;
9294;SDS011;4686;44.496;11.324;2023-06-10T09:33:09;32.23;;;28.70;;
9294;SDS011;4686;44.496;11.324;2023-06-10T09:35:37;34.10;;;27.90;;
9294;SDS011;4686;44.496;11.324;2023-06-10T09:38:11;47.70;;;39.90;;
9294;SDS011;4686;44.496;11.324;2023-06-10T09:40:49;80.73;;;72.03;;
9294;SDS011;4686;44.496;11.324;2023-06-10T09:43:17;26.43;;;22.00;;
9294;SDS011;4686;44.496;11.324;2023-06-10T09:45:44;86.10;;;70.13;;
9294;SDS011;4686;44.496;11.324;2023-06-10T09:48:14;80.27;;;68.27;;
9294;SDS011;4686;44.496;11.324;2023-06-10T09:50:41;27.90;;;20.53;;
9294;SDS011;4686;44.496;11.324;2023-06-10T09:53:10;57.97;;;46.20;;
9294;SDS011;4686;44.496;11.324;2023-06-10T09:55:37;48.13;;;41.20;;
9294;SDS011;4686;44.496;11.324;2023-06-10T09:58:07;52.17;;;45.57;;
9294;SDS011;4686;44.496;11.324;2023-06-10T10:00:34;31.17;;;24.47;;
9294;SDS011;4686;44.496;11.324;2023-06-10T10:03:02;35.57;;;31.87;;
9294;SDS011;4686;44.496;11.324;2023-06-10T10:05:31;30.20;;;26.97;;
9294;SDS011;4686;44.496;11.324;2023-06-10T10:07:59;20.20;;;17.77;;
9294;SDS011;4686;44.496;11.324;2023-06-10T10:10:26;21.37;;;19.17;;
9294;SDS011;4686;44.496;11.324;2023-06-10T10:12:54;21.87;;;17.87;;
9294;SDS011;4686;44.496;11.324;2023-06-10T10:15:24;21.43;;;19.33;;
9294;SDS011;4686;44.496;11.324;2023-06-10T10:17:53;35.10;;;26.77;;
9294;SDS011;4686;44.496;11.324;2023-06-10T10:20:24;25.07;;;22.53;;
9294;SDS011;4686;44.496;11.324;2023-06-10T10:22:52;17.07;;;15.37;;
9294;SDS011;4686;44.496;11.324;2023-06-10T10:25:23;26.90;;;21.60;;
9294;SDS011;4686;44.496;11.324;2023-06-10T10:27:58;22.83;;;18.87;;
9294;SDS011;4686;44.496;11.324;2023-06-10T10:30:28;21.90;;;19.60;;
9294;SDS011;4686;44.496;11.324;2023-06-10T10:32:57;23.93;;;19.50;;
9294;SDS011;4686;44.496;11.324;2023-06-10T10:35:26;20.73;;;17.20;;
9294;SDS011;4686;44.496;11.324;2023-06-10T10:37:54;19.30;;;15.67;;
9294;SDS011;4686;44.496;11.324;2023-06-10T10:40:21;20.17;;;16.93;;
9294;SDS011;4686;44.496;11.324;2023-06-10T10:42:49;17.90;;;16.07;;
9294;SDS011;4686;44.496;11.324;2023-06-10T10:45:18;15.87;;;14.37;;
9294;SDS011;4686;44.496;11.324;2023-06-10T10:47:47;15.40;;;13.90;;
9294;SDS011;4686;44.496;11.324;2023-06-10T10:50:19;17.33;;;14.50;;
9294;SDS011;4686;44.496;11.324;2023-06-10T10:52:50;15.27;;;12.73;;
9294;SDS011;4686;44.496;11.324;2023-06-10T10:55:18;13.63;;;12.17;;
9294;SDS011;4686;44.496;11.324;2023-06-10T10:57:53;12.57;;;11.10;;
9294;SDS011;4686;44.496;11.324;2023-06-10T11:00:26;12.70;;;9.97;;
9294;SDS011;4686;44.496;11.324;2023-06-10T11:02:59;13.10;;;9.80;;
9294;SDS011;4686;44.496;11.324;2023-06-10T11:05:32;11.43;;;10.20;;
9294;SDS011;4686;44.496;11.324;2023-06-10T11:08:02;13.50;;;10.07;;
9294;SDS011;4686;44.496;11.324;2023-06-10T11:10:30;11.40;;;10.40;;
9294;SDS011;4686;44.496;11.324;2023-06-10T11:12:58;16.60;;;10.10;;
9294;SDS011;4686;44.496;11.324;2023-06-10T11:15:26;11.47;;;9.27;;
9294;SDS011;4686;44.496;11.324;2023-06-10T11:18:15;10.57;;;9.57;;
9294;SDS011;4686;44.496;11.324;2023-06-10T11:20:52;11.03;;;8.63;;
9294;SDS011;4686;44.496;11.324;2023-06-10T11:26:21;10.97;;;9.20;;
9294;SDS011;4686;44.496;11.324;2023-06-10T11:29:10;9.88;;;8.45;;
9294;SDS011;4686;44.496;11.324;2023-06-10T11:31:44;11.47;;;10.30;;
9294;SDS011;4686;44.496;11.324;2023-06-10T11:34:20;11.60;;;9.53;;
9294;SDS011;4686;44.496;11.324;2023-06-10T11:36:48;10.87;;;9.77;;
9294;SDS011;4686;44.496;11.324;2023-06-10T11:39:19;11.83;;;8.77;;
9294;SDS011;4686;44.496;11.324;2023-06-10T11:41:48;8.93;;;8.03;;
9294;SDS011;4686;44.496;11.324;2023-06-10T11:44:16;15.00;;;10.47;;
9294;SDS011;4686;44.496;11.324;2023-06-10T11:46:43;10.10;;;9.10;;
9294;SDS011;4686;44.496;11.324;2023-06-10T11:49:11;10.60;;;9.50;;
9294;SDS011;4686;44.496;11.324;2023-06-10T11:51:40;9.97;;;9.07;;
9294;SDS011;4686;44.496;11.324;2023-06-10T11:54:14;9.60;;;8.60;;
9294;SDS011;4686;44.496;11.324;2023-06-10T11:56:42;11.10;;;9.93;;
9294;SDS011;4686;44.496;11.324;2023-06-10T11:59:10;10.00;;;9.00;;
9294;SDS011;4686;44.496;11.324;2023-06-10T12:01:39;11.70;;;10.43;;
9294;SDS011;4686;44.496;11.324;2023-06-10T12:04:09;9.23;;;8.23;;
9294;SDS011;4686;44.496;11.324;2023-06-10T12:06:37;11.30;;;8.80;;
9294;SDS011;4686;44.496;11.324;2023-06-10T12:09:07;8.60;;;7.80;;
9294;SDS011;4686;44.496;11.324;2023-06-10T12:11:43;8.50;;;7.70;;
9294;SDS011;4686;44.496;11.324;2023-06-10T12:14:10;8.53;;;6.63;;
9294;SDS011;4686;44.496;11.324;2023-06-10T12:16:38;7.27;;;6.67;;
9294;SDS011;4686;44.496;11.324;2023-06-10T12:19:05;12.10;;;7.20;;
9294;SDS011;4686;44.496;11.324;2023-06-10T12:21:33;9.00;;;7.33;;
9294;SDS011;4686;44.496;11.324;2023-06-10T12:24:05;7.77;;;6.80;;
9294;SDS011;4686;44.496;11.324;2023-06-10T12:26:41;7.37;;;6.70;;
9294;SDS011;4686;44.496;11.324;2023-06-10T12:31:56;8.43;;;6.37;;
9294;SDS011;4686;44.496;11.324;2023-06-10T12:34:30;8.00;;;5.90;;
9294;SDS011;4686;44.496;11.324;2023-06-10T12:36:59;6.67;;;6.07;;
9294;SDS011;4686;44.496;11.324;2023-06-10T12:39:32;7.30;;;5.73;;
9294;SDS011;4686;44.496;11.324;2023-06-10T12:42:04;9.23;;;6.10;;
9294;SDS011;4686;44.496;11.324;2023-06-10T12:44:38;6.67;;;6.17;;
9294;SDS011;4686;44.496;11.324;2023-06-10T12:47:13;6.20;;;5.70;;
9294;SDS011;4686;44.496;11.324;2023-06-10T12:49:44;7.23;;;6.50;;
9294;SDS011;4686;44.496;11.324;2023-06-10T12:52:13;9.67;;;8.30;;
9294;SDS011;4686;44.496;11.324;2023-06-10T12:54:40;9.53;;;5.80;;
9294;SDS011;4686;44.496;11.324;2023-06-10T12:57:10;6.83;;;6.23;;
9294;SDS011;4686;44.496;11.324;2023-06-10T12:59:40;6.27;;;5.73;;
9294;SDS011;4686;44.496;11.324;2023-06-10T13:02:12;6.20;;;5.60;;
9294;SDS011;4686;44.496;11.324;2023-06-10T13:04:40;6.63;;;5.27;;
9294;SDS011;4686;44.496;11.324;2023-06-10T13:07:08;6.00;;;5.10;;
9294;SDS011;4686;44.496;11.324;2023-06-10T13:09:35;6.83;;;6.17;;
9294;SDS011;4686;44.496;11.324;2023-06-10T13:12:05;12.20;;;7.40;;
9294;SDS011;4686;44.496;11.324;2023-06-10T13:14:34;6.33;;;5.40;;
9294;SDS011;4686;44.496;11.324;2023-06-10T13:17:02;15.23;;;5.50;;
9294;SDS011;4686;44.496;11.324;2023-06-10T13:19:30;7.10;;;5.43;;
9294;SDS011;4686;44.496;11.324;2023-06-10T13:21:58;7.33;;;6.47;;
9294;SDS011;4686;44.496;11.324;2023-06-10T13:24:26;7.90;;;7.10;;
9294;SDS011;4686;44.496;11.324;2023-06-10T13:26:53;8.47;;;7.20;;
9294;SDS011;4686;44.496;11.324;2023-06-10T13:29:21;6.93;;;6.23;;
9294;SDS011;4686;44.496;11.324;2023-06-10T13:31:50;10.23;;;9.00;;
9294;SDS011;4686;44.496;11.324;2023-06-10T13:34:18;11.63;;;8.27;;
9294;SDS011;4686;44.496;11.324;2023-06-10T13:36:45;8.47;;;7.67;;
9294;SDS011;4686;44.496;11.324;2023-06-10T13:39:14;8.80;;;7.83;;
9294;SDS011;4686;44.496;11.324;2023-06-10T13:41:41;9.47;;;8.57;;
9294;SDS011;4686;44.496;11.324;2023-06-10T13:44:08;8.40;;;7.50;;
9294;SDS011;4686;44.496;11.324;2023-06-10T13:46:36;10.03;;;8.77;;
9294;SDS011;4686;44.496;11.324;2023-06-10T13:49:04;10.63;;;9.57;;
9294;SDS011;4686;44.496;11.324;2023-06-10T13:51:32;17.37;;;13.00;;
9294;SDS011;4686;44.496;11.324;2023-06-10T13:53:59;11.13;;;9.57;;
9294;SDS011;4686;44.496;11.324;2023-06-10T13:56:26;15.87;;;12.40;;
9294;SDS011;4686;44.496;11.324;2023-06-10T13:58:54;13.50;;;12.10;;
9294;SDS011;4686;44.496;11.324;2023-06-10T14:01:21;10.50;;;9.43;;
9294;SDS011;4686;44.496;11.324;2023-06-10T14:03:49;12.73;;;10.37;;
9294;SDS011;4686;44.496;11.324;2023-06-10T14:06:18;12.70;;;11.37;;
9294;SDS011;4686;44.496;11.324;2023-06-10T14:08:49;13.07;;;11.80;;
9294;SDS011;4686;44.496;11.324;2023-06-10T14:11:27;11.73;;;10.53;;
9294;SDS011;4686;44.496;11.324;2023-06-10T14:13:55;20.07;;;17.93;;
9294;SDS011;4686;44.496;11.324;2023-06-10T14:16:22;27.77;;;23.53;;
9294;SDS011;4686;44.496;11.324;2023-06-10T14:18:52;30.80;;;26.67;;
9294;SDS011;4686;44.496;11.324;2023-06-10T14:21:21;9.50;;;8.40;;
9294;SDS011;4686;44.496;11.324;2023-06-10T14:23:49;16.07;;;12.10;;
9294;SDS011;4686;44.496;11.324;2023-06-10T14:26:18;7.70;;;6.53;;
9294;SDS011;4686;44.496;11.324;2023-06-10T14:28:48;8.00;;;7.20;;
9294;SDS011;4686;44.496;11.324;2023-06-10T14:31:15;6.07;;;5.47;;
9294;SDS011;4686;44.496;11.324;2023-06-10T14:33:43;5.67;;;4.60;;
9294;SDS011;4686;44.496;11.324;2023-06-10T14:36:10;25.90;;;22.23;;
9294;SDS011;4686;44.496;11.324;2023-06-10T14:38:39;7.97;;;5.87;;
9294;SDS011;4686;44.496;11.324;2023-06-10T14:41:06;8.50;;;7.70;;
9294;SDS011;4686;44.496;11.324;2023-06-10T14:43:34;5.60;;;4.50;;
9294;SDS011;4686;44.496;11.324;2023-06-10T14:46:01;8.13;;;7.37;;
9294;SDS011;4686;44.496;11.324;2023-06-10T14:48:29;6.57;;;6.00;;
9294;SDS011;4686;44.496;11.324;2023-06-10T14:50:56;6.80;;;6.07;;
9294;SDS011;4686;44.496;11.324;2023-06-10T14:53:24;11.50;;;7.07;;
9294;SDS011;4686;44.496;11.324;2023-06-10T14:55:52;6.87;;;6.20;;